createdAt,value
2023-05-08T00:00:42.545Z,54.69
2023-05-08T00:03:10.280Z,54.35
2023-05-08T00:05:37.993Z,54.46
2023-05-08T00:08:05.993Z,54.44
2023-05-08T00:10:33.708Z,55.51
2023-05-08T00:13:01.296Z,55.09
2023-05-08T00:15:29.509Z,54.87
2023-05-08T00:17:58.752Z,55.16
2023-05-08T00:20:26.398Z,55.53
2023-05-08T00:22:53.891Z,55.73
2023-05-08T00:25:21.422Z,55.44
2023-05-08T00:27:49.149Z,55.26
2023-05-08T00:30:16.935Z,55.53
2023-05-08T00:32:44.536Z,55.04
2023-05-08T00:35:12.081Z,54.95
2023-05-08T00:37:41.373Z,55.06
2023-05-08T00:40:10.584Z,55.37
2023-05-08T00:42:38.728Z,55.34
2023-05-08T00:45:07.343Z,55.04
2023-05-08T00:47:35.822Z,55.15
2023-05-08T00:50:04.807Z,55.61
2023-05-08T00:52:33.848Z,55.09
2023-05-08T00:55:02.954Z,54.71
2023-05-08T00:57:34.600Z,55.50
2023-05-08T01:00:04.425Z,55.15
2023-05-08T01:02:32.878Z,55.18
2023-05-08T01:05:00.951Z,55.32
2023-05-08T01:07:28.876Z,54.63
2023-05-08T01:09:56.657Z,55.17
2023-05-08T01:12:40.762Z,55.38
2023-05-08T01:15:08.710Z,55.84
2023-05-08T01:17:42.684Z,56.40
2023-05-08T01:20:17.801Z,57.34
2023-05-08T01:23:22.989Z,57.37
2023-05-08T01:26:07.672Z,56.96
2023-05-08T01:28:53.804Z,56.95
2023-05-08T01:31:30.762Z,58.80
2023-05-08T01:34:14.985Z,57.97
2023-05-08T01:37:00.853Z,57.08
2023-05-08T01:39:28.495Z,56.90
2023-05-08T01:42:06.022Z,57.17
2023-05-08T01:44:45.821Z,57.12
2023-05-08T01:47:15.991Z,56.34
2023-05-08T01:49:49.488Z,56.85
2023-05-08T01:52:28.588Z,56.73
2023-05-08T01:55:01.060Z,57.03
2023-05-08T01:57:30.197Z,58.93
2023-05-08T02:00:01.277Z,58.55
2023-05-08T02:02:32.305Z,58.00
2023-05-08T02:05:04.813Z,57.37
2023-05-08T02:07:35.422Z,58.00
2023-05-08T02:10:04.606Z,58.32
2023-05-08T02:12:33.084Z,58.08
2023-05-08T02:15:02.577Z,58.20
2023-05-08T02:17:32.126Z,57.43
2023-05-08T02:20:03.561Z,58.22
2023-05-08T02:22:33.177Z,57.81
2023-05-08T02:25:01.806Z,56.58
2023-05-08T02:27:31.608Z,56.60
2023-05-08T02:30:00.706Z,56.85
2023-05-08T02:32:31.075Z,57.92
2023-05-08T02:35:03.510Z,58.29
2023-05-08T02:37:34.364Z,58.15
2023-05-08T02:40:04.174Z,57.43
2023-05-08T02:42:32.458Z,56.98
2023-05-08T02:45:00.210Z,57.67
2023-05-08T02:47:34.484Z,58.22
2023-05-08T02:50:20.917Z,57.64
2023-05-08T02:52:54.557Z,58.94
2023-05-08T02:55:33.355Z,58.69
2023-05-08T02:58:20.584Z,59.76
2023-05-08T03:00:56.877Z,58.65
2023-05-08T03:03:31.880Z,59.54
2023-05-08T03:06:02.853Z,58.21
2023-05-08T03:08:34.887Z,57.83
2023-05-08T03:11:09.254Z,57.06
2023-05-08T03:13:41.018Z,57.45
2023-05-08T03:16:15.474Z,58.09
2023-05-08T03:19:05.879Z,57.41
2023-05-08T03:21:37.441Z,56.75
2023-05-08T03:24:07.391Z,58.40
2023-05-08T03:26:36.454Z,58.72
2023-05-08T03:29:05.685Z,57.83
2023-05-08T03:31:35.526Z,57.40
2023-05-08T03:34:05.275Z,57.61
2023-05-08T03:36:33.216Z,57.45
2023-05-08T03:39:02.059Z,57.12
2023-05-08T03:41:30.641Z,56.39
2023-05-08T03:43:59.168Z,57.95
2023-05-08T03:46:26.945Z,57.52
2023-05-08T03:48:55.426Z,57.27
2023-05-08T03:51:23.483Z,57.79
2023-05-08T03:53:52.035Z,58.53
2023-05-08T03:56:24.077Z,57.71
2023-05-08T03:59:09.305Z,58.26
2023-05-08T04:01:41.257Z,58.05
2023-05-08T04:04:21.620Z,56.89
2023-05-08T04:07:24.876Z,57.90
2023-05-08T04:10:16.518Z,58.74
2023-05-08T04:13:04.940Z,58.15
2023-05-08T04:15:38.599Z,58.22
2023-05-08T04:18:10.266Z,57.66
2023-05-08T04:20:42.459Z,58.19
2023-05-08T04:23:17.325Z,59.29
2023-05-08T04:25:48.706Z,58.79
2023-05-08T04:28:21.447Z,58.07
2023-05-08T04:30:49.907Z,57.87
2023-05-08T04:33:18.920Z,57.60
2023-05-08T04:35:46.875Z,58.48
2023-05-08T04:38:15.330Z,57.82
2023-05-08T04:40:43.496Z,58.14
2023-05-08T04:43:12.415Z,57.69
2023-05-08T04:45:39.942Z,58.20
2023-05-08T04:48:07.692Z,58.74
2023-05-08T04:50:35.357Z,57.24
2023-05-08T04:53:02.905Z,57.84
2023-05-08T04:55:31.029Z,56.52
2023-05-08T04:57:58.508Z,56.59
2023-05-08T05:00:26.189Z,56.90
2023-05-08T05:02:53.829Z,57.04
2023-05-08T05:05:21.698Z,57.90
2023-05-08T05:07:49.464Z,57.51
2023-05-08T05:10:18.161Z,56.85
2023-05-08T05:12:47.783Z,57.33
2023-05-08T05:15:15.860Z,57.94
2023-05-08T05:17:44.029Z,58.20
2023-05-08T05:20:12.493Z,57.60
2023-05-08T05:22:40.080Z,57.64
2023-05-08T05:25:09.496Z,56.19
2023-05-08T05:27:37.366Z,55.96
2023-05-08T05:30:07.025Z,55.92
2023-05-08T05:32:34.806Z,56.76
2023-05-08T05:35:02.746Z,56.32
2023-05-08T05:37:30.564Z,55.65
2023-05-08T05:39:58.118Z,55.48
2023-05-08T05:42:25.910Z,55.90
2023-05-08T05:44:57.086Z,56.12
2023-05-08T05:47:25.392Z,55.92
2023-05-08T05:49:53.232Z,55.40
2023-05-08T05:52:21.243Z,54.83
2023-05-08T05:54:49.014Z,55.22
2023-05-08T05:57:16.629Z,55.46
2023-05-08T05:59:44.647Z,56.89
2023-05-08T06:02:18.676Z,56.74
2023-05-08T06:04:46.799Z,56.03
2023-05-08T06:07:15.081Z,55.48
2023-05-08T06:09:42.711Z,55.12
2023-05-08T06:12:12.107Z,55.86
2023-05-08T06:14:39.820Z,55.70
2023-05-08T06:17:07.979Z,55.14
2023-05-08T06:19:36.049Z,54.56
2023-05-08T06:22:03.808Z,54.07
2023-05-08T06:24:31.364Z,54.36
2023-05-08T06:26:59.353Z,54.67
2023-05-08T06:29:27.018Z,55.42
2023-05-08T06:31:54.612Z,54.13
2023-05-08T06:34:25.575Z,54.63
2023-05-08T06:36:53.136Z,55.61
2023-05-08T06:39:20.661Z,55.66
2023-05-08T06:41:49.021Z,54.72
2023-05-08T06:44:24.930Z,54.29
2023-05-08T06:46:52.520Z,53.95
2023-05-08T06:49:20.058Z,53.81
2023-05-08T06:51:47.627Z,54.20
2023-05-08T06:54:15.615Z,54.93
2023-05-08T06:56:43.349Z,54.35
2023-05-08T06:59:10.914Z,54.03
2023-05-08T07:01:38.616Z,55.38
2023-05-08T07:04:06.241Z,54.48
2023-05-08T07:06:34.639Z,53.69
2023-05-08T07:09:02.393Z,53.11
2023-05-08T07:11:30.089Z,54.20
2023-05-08T07:13:57.690Z,52.55
2023-05-08T07:16:25.207Z,52.95
2023-05-08T07:18:52.768Z,53.74
2023-05-08T07:21:21.378Z,51.73
2023-05-08T07:23:51.739Z,51.92
2023-05-08T07:26:19.403Z,51.22
2023-05-08T07:28:47.164Z,52.59
2023-05-08T07:31:14.785Z,52.11
2023-05-08T07:33:42.676Z,51.29
2023-05-08T07:36:10.177Z,51.39
2023-05-08T07:38:38.295Z,51.85
2023-05-08T07:41:07.074Z,51.47
2023-05-08T07:43:35.014Z,51.55
2023-05-08T07:46:02.977Z,51.97
2023-05-08T07:48:31.326Z,51.82
2023-05-08T07:50:58.832Z,50.34
2023-05-08T07:53:26.546Z,50.58
2023-05-08T07:55:54.459Z,49.22
2023-05-08T07:58:23.785Z,50.79
2023-05-08T08:00:51.974Z,50.41
2023-05-08T08:03:19.744Z,50.07
2023-05-08T08:05:47.412Z,52.44
2023-05-08T08:08:14.973Z,51.33
2023-05-08T08:10:42.509Z,51.25
2023-05-08T08:13:10.175Z,50.45
2023-05-08T08:15:37.791Z,50.87
2023-05-08T08:18:05.421Z,51.27
2023-05-08T08:20:32.931Z,50.52
2023-05-08T08:23:00.548Z,50.45
2023-05-08T08:25:28.440Z,50.99
2023-05-08T08:27:55.985Z,49.73
2023-05-08T08:30:23.638Z,49.85
2023-05-08T08:32:51.210Z,50.52
2023-05-08T08:35:18.977Z,49.26
2023-05-08T08:37:46.573Z,49.61
2023-05-08T08:40:14.158Z,50.29
2023-05-08T08:42:41.914Z,50.82
2023-05-08T08:45:11.201Z,51.53
2023-05-08T08:47:43.236Z,49.10
2023-05-08T08:50:14.650Z,48.51
2023-05-08T08:52:58.687Z,47.83
2023-05-08T08:55:26.988Z,49.10
2023-05-08T08:58:03.250Z,48.28
2023-05-08T09:00:32.629Z,47.79
2023-05-08T09:03:00.647Z,49.64
2023-05-08T09:05:28.601Z,49.21
2023-05-08T09:07:56.357Z,48.84
2023-05-08T09:10:27.210Z,49.53
2023-05-08T09:12:55.102Z,49.17
2023-05-08T09:15:22.706Z,49.43
2023-05-08T09:17:50.355Z,47.73
2023-05-08T09:20:18.905Z,47.52
2023-05-08T09:22:46.770Z,47.52
2023-05-08T09:25:14.634Z,46.75
2023-05-08T09:27:42.429Z,47.23
2023-05-08T09:30:11.755Z,48.39
2023-05-08T09:32:41.066Z,47.96
2023-05-08T09:35:09.963Z,48.26
2023-05-08T09:37:43.233Z,47.42
2023-05-08T09:40:22.124Z,46.66
2023-05-08T09:42:51.055Z,46.94
2023-05-08T09:45:31.444Z,46.63
2023-05-08T09:47:59.565Z,47.27
2023-05-08T09:50:27.947Z,47.77
2023-05-08T09:52:55.815Z,46.92
2023-05-08T09:55:23.484Z,46.09
2023-05-08T09:57:59.794Z,46.95
2023-05-08T10:00:30.092Z,47.12
2023-05-08T10:03:00.099Z,48.83
2023-05-08T10:05:31.642Z,46.73
2023-05-08T10:08:18.733Z,47.25
2023-05-08T10:10:46.666Z,46.63
2023-05-08T10:13:14.559Z,46.83
2023-05-08T10:15:43.699Z,46.89
2023-05-08T10:18:12.364Z,45.73
2023-05-08T10:20:42.379Z,45.20
2023-05-08T10:23:14.937Z,46.42
2023-05-08T10:25:46.291Z,47.75
2023-05-08T10:28:22.932Z,46.30
2023-05-08T10:30:51.177Z,45.34
2023-05-08T10:33:21.652Z,45.45
2023-05-08T10:35:49.554Z,44.19
2023-05-08T10:38:17.639Z,44.56
2023-05-08T10:40:46.184Z,45.25
2023-05-08T10:43:14.675Z,45.92
2023-05-08T10:45:42.740Z,46.67
2023-05-08T10:48:39.439Z,45.41
2023-05-08T10:51:22.052Z,46.22
2023-05-08T10:53:55.406Z,45.14
2023-05-08T10:56:27.551Z,43.77
2023-05-08T10:58:59.240Z,44.18
2023-05-08T11:01:27.137Z,44.47
2023-05-08T11:03:58.087Z,45.03
2023-05-08T11:06:46.055Z,44.77
2023-05-08T11:09:22.086Z,43.54
2023-05-08T11:12:16.029Z,42.90
2023-05-08T11:14:53.402Z,42.84
2023-05-08T11:17:25.548Z,42.86
2023-05-08T11:20:01.226Z,42.55
2023-05-08T11:22:29.971Z,43.04
2023-05-08T11:25:03.657Z,43.57
2023-05-08T11:27:47.241Z,43.65
2023-05-08T11:30:24.420Z,42.76
2023-05-08T11:33:04.233Z,42.77
2023-05-08T11:35:57.246Z,42.93
2023-05-08T11:38:30.753Z,44.08
2023-05-08T11:41:07.449Z,44.42
2023-05-08T11:43:37.905Z,43.72
2023-05-08T11:46:05.853Z,43.72
2023-05-08T11:48:33.876Z,44.15
2023-05-08T11:51:02.956Z,43.08
2023-05-08T11:53:31.461Z,43.85
2023-05-08T11:56:00.622Z,44.02
2023-05-08T11:58:28.116Z,44.27
2023-05-08T12:00:55.986Z,43.26
2023-05-08T12:03:27.851Z,42.41
2023-05-08T12:05:57.706Z,43.06
2023-05-08T12:08:26.386Z,41.82
2023-05-08T12:10:55.670Z,42.10
2023-05-08T12:13:27.644Z,41.20
2023-05-08T12:16:00.610Z,42.36
2023-05-08T12:18:30.609Z,42.77
2023-05-08T12:21:00.224Z,42.89
2023-05-08T12:23:29.675Z,42.12
2023-05-08T12:26:01.780Z,42.82
2023-05-08T12:28:32.494Z,41.97
2023-05-08T12:31:00.765Z,43.06
2023-05-08T12:33:29.279Z,42.89
2023-05-08T12:35:57.407Z,44.49
2023-05-08T12:38:28.289Z,44.34
2023-05-08T12:40:56.202Z,44.54
2023-05-08T12:43:34.786Z,43.52
2023-05-08T12:46:06.244Z,43.21
2023-05-08T12:48:34.310Z,43.20
2023-05-08T12:51:04.002Z,44.51
2023-05-08T12:53:32.917Z,44.10
2023-05-08T12:56:04.610Z,44.77
2023-05-08T12:58:34.761Z,44.73
2023-05-08T13:01:13.274Z,43.81
2023-05-08T13:03:41.680Z,43.64
2023-05-08T13:06:21.026Z,43.23
2023-05-08T13:08:55.284Z,43.40
2023-05-08T13:11:31.621Z,43.44
2023-05-08T13:13:59.404Z,42.75
2023-05-08T13:16:27.126Z,42.79
2023-05-08T13:18:54.693Z,42.37
2023-05-08T13:21:22.288Z,42.09
2023-05-08T13:23:49.847Z,42.63
2023-05-08T13:26:17.501Z,42.02
2023-05-08T13:28:45.038Z,42.60
2023-05-08T13:31:12.590Z,43.15
2023-05-08T13:33:40.175Z,42.38
2023-05-08T13:36:08.444Z,41.89
2023-05-08T13:38:36.172Z,41.41
2023-05-08T13:41:03.714Z,42.46
2023-05-08T13:43:31.336Z,41.94
2023-05-08T13:45:58.896Z,41.94
2023-05-08T13:48:26.479Z,42.20
2023-05-08T13:50:54.298Z,42.47
2023-05-08T13:53:21.881Z,42.66
2023-05-08T13:55:49.460Z,42.71
2023-05-08T13:58:17.078Z,42.21
2023-05-08T14:00:45.503Z,41.85
2023-05-08T14:03:13.262Z,43.36
2023-05-08T14:05:40.953Z,43.47
2023-05-08T14:08:08.720Z,44.32
2023-05-08T14:10:36.468Z,42.91
2023-05-08T14:13:04.283Z,42.27
2023-05-08T14:15:37.088Z,42.34
2023-05-08T14:18:06.021Z,43.52
2023-05-08T14:20:34.935Z,43.63
2023-05-08T14:23:02.868Z,43.81
2023-05-08T14:25:30.726Z,42.67
2023-05-08T14:27:58.297Z,42.64
2023-05-08T14:30:25.901Z,43.70
2023-05-08T14:32:53.635Z,44.93
2023-05-08T14:35:21.308Z,44.07
2023-05-08T14:37:48.753Z,43.03
2023-05-08T14:40:16.311Z,42.89
2023-05-08T14:42:43.861Z,43.13
2023-05-08T14:45:11.734Z,43.43
2023-05-08T14:47:39.736Z,43.82
2023-05-08T14:50:07.805Z,44.42
2023-05-08T14:52:35.866Z,43.38
2023-05-08T14:55:03.778Z,42.78
2023-05-08T14:57:31.597Z,42.67
2023-05-08T14:59:59.201Z,42.22
2023-05-08T15:02:26.794Z,43.16
2023-05-08T15:04:54.324Z,42.67
2023-05-08T15:07:21.860Z,42.91
2023-05-08T15:09:49.420Z,43.32
2023-05-08T15:12:17.010Z,43.18
2023-05-08T15:14:45.421Z,42.76
2023-05-08T15:17:13.164Z,41.00
2023-05-08T15:19:40.817Z,41.31
2023-05-08T15:22:08.903Z,41.91
2023-05-08T15:24:36.652Z,42.51
2023-05-08T15:27:04.315Z,43.18
2023-05-08T15:29:32.337Z,43.83
2023-05-08T15:31:59.920Z,44.08
2023-05-08T15:34:32.323Z,44.76
2023-05-08T15:37:00.749Z,44.10
2023-05-08T15:39:28.328Z,43.58
2023-05-08T15:41:55.815Z,44.09
2023-05-08T15:44:24.877Z,43.57
2023-05-08T15:46:54.114Z,43.64
2023-05-08T15:49:25.787Z,44.25
2023-05-08T15:51:53.846Z,43.83
2023-05-08T15:54:22.779Z,43.17
2023-05-08T15:56:50.484Z,43.93
2023-05-08T15:59:17.996Z,44.47
2023-05-08T16:01:46.980Z,44.36
2023-05-08T16:04:14.562Z,43.86
2023-05-08T16:06:42.088Z,44.32
2023-05-08T16:09:09.569Z,44.26
2023-05-08T16:11:37.206Z,43.92
2023-05-08T16:14:05.075Z,43.82
2023-05-08T16:16:33.050Z,43.79
2023-05-08T16:19:00.977Z,43.39
2023-05-08T16:21:28.621Z,43.87
2023-05-08T16:23:56.203Z,44.90
2023-05-08T16:26:24.062Z,44.49
2023-05-08T16:28:52.089Z,45.20
2023-05-08T16:31:19.935Z,44.92
2023-05-08T16:33:47.615Z,45.52
2023-05-08T16:36:15.151Z,44.88
2023-05-08T16:38:42.677Z,44.95
2023-05-08T16:41:11.337Z,45.49
2023-05-08T16:43:39.332Z,44.63
2023-05-08T16:46:07.477Z,44.54
2023-05-08T16:48:35.530Z,44.88
2023-05-08T16:51:03.072Z,45.37
2023-05-08T16:53:32.627Z,45.53
2023-05-08T16:56:00.576Z,44.96
2023-05-08T16:58:28.225Z,44.54
2023-05-08T17:00:55.824Z,45.20
2023-05-08T17:03:23.794Z,45.99
2023-05-08T17:05:51.595Z,46.39
2023-05-08T17:08:19.347Z,46.35
2023-05-08T17:10:46.876Z,46.68
2023-05-08T17:13:14.568Z,45.92
2023-05-08T17:15:42.129Z,46.25
2023-05-08T17:18:10.037Z,46.30
2023-05-08T17:20:41.086Z,46.79
2023-05-08T17:23:09.515Z,47.46
2023-05-08T17:25:37.742Z,47.03
2023-05-08T17:28:05.426Z,47.03
2023-05-08T17:30:33.386Z,47.82
2023-05-08T17:33:00.988Z,47.75
2023-05-08T17:35:28.582Z,47.36
2023-05-08T17:37:56.382Z,48.16
2023-05-08T17:40:25.864Z,48.39
2023-05-08T17:42:53.438Z,48.04
2023-05-08T17:45:20.867Z,48.42
2023-05-08T17:47:48.412Z,48.76
2023-05-08T17:50:16.029Z,48.63
2023-05-08T17:52:43.633Z,48.67
2023-05-08T17:55:11.316Z,48.76
2023-05-08T17:57:38.945Z,48.24
2023-05-08T18:00:07.273Z,47.96
2023-05-08T18:02:36.695Z,47.95
2023-05-08T18:05:04.693Z,48.33
2023-05-08T18:07:32.333Z,48.29
2023-05-08T18:10:00.097Z,47.71
2023-05-08T18:12:28.162Z,48.37
2023-05-08T18:14:55.654Z,48.76
2023-05-08T18:17:23.291Z,48.90
2023-05-08T18:19:51.022Z,49.82
2023-05-08T18:22:18.595Z,49.65
2023-05-08T18:24:46.207Z,50.28
2023-05-08T18:27:13.744Z,50.36
2023-05-08T18:29:41.333Z,50.40
2023-05-08T18:32:08.862Z,50.65
2023-05-08T18:34:36.755Z,50.67
2023-05-08T18:37:04.400Z,49.88
2023-05-08T18:39:31.933Z,50.49
2023-05-08T18:41:59.483Z,50.79
2023-05-08T18:44:27.000Z,50.90
2023-05-08T18:46:54.574Z,51.36
2023-05-08T18:49:22.296Z,51.88
2023-05-08T18:51:49.956Z,51.52
2023-05-08T18:54:17.487Z,51.77
2023-05-08T18:56:45.074Z,51.62
2023-05-08T18:59:12.542Z,51.78
2023-05-08T19:01:40.134Z,52.12
2023-05-08T19:04:07.814Z,51.88
2023-05-08T19:06:35.572Z,52.37
2023-05-08T19:09:03.295Z,52.38
2023-05-08T19:11:31.136Z,51.95
2023-05-08T19:13:58.748Z,52.12
2023-05-08T19:16:26.523Z,52.46
2023-05-08T19:18:54.087Z,52.60
2023-05-08T19:21:21.663Z,52.51
2023-05-08T19:23:49.239Z,52.71
2023-05-08T19:26:16.831Z,53.04
2023-05-08T19:28:44.350Z,52.67
2023-05-08T19:31:12.093Z,52.72
2023-05-08T19:33:39.691Z,53.25
2023-05-08T19:36:07.283Z,52.65
2023-05-08T19:38:37.174Z,52.63
2023-05-08T19:41:04.592Z,52.03
2023-05-08T19:43:32.387Z,53.11
2023-05-08T19:46:00.286Z,52.73
2023-05-08T19:48:27.898Z,52.23
2023-05-08T19:50:55.583Z,52.28
2023-05-08T19:53:23.677Z,52.26
2023-05-08T19:55:51.291Z,51.18
2023-05-08T19:58:19.046Z,51.17
2023-05-08T20:03:17.209Z,50.55
2023-05-08T20:05:45.150Z,51.01
2023-05-08T20:08:12.771Z,52.08
2023-05-08T20:10:40.397Z,52.77
2023-05-08T20:13:08.046Z,51.99
2023-05-08T20:15:35.729Z,51.96
2023-05-08T20:18:05.681Z,51.70
2023-05-08T20:20:34.889Z,51.81
2023-05-08T20:23:03.032Z,51.49
2023-05-08T20:25:30.638Z,51.95
2023-05-08T20:27:58.271Z,51.63
2023-05-08T20:30:25.975Z,51.23
2023-05-08T20:32:53.570Z,51.21
2023-05-08T20:35:21.267Z,51.13
2023-05-08T20:37:49.480Z,52.22
2023-05-08T20:40:17.230Z,52.35
2023-05-08T20:42:44.932Z,53.09
2023-05-08T20:45:12.523Z,53.00
2023-05-08T20:47:40.814Z,53.34
2023-05-08T20:50:08.731Z,52.85
2023-05-08T20:52:37.996Z,52.37
2023-05-08T20:55:07.162Z,52.37
2023-05-08T20:57:34.984Z,51.92
2023-05-08T21:00:03.550Z,52.31
2023-05-08T21:02:31.506Z,52.40
2023-05-08T21:04:59.252Z,52.54
2023-05-08T22:02:14.071Z,51.35
2023-05-08T22:04:41.722Z,51.08
2023-05-08T22:07:09.305Z,50.28
2023-05-08T22:09:37.310Z,51.02
2023-05-08T22:12:06.488Z,51.22
2023-05-08T22:14:34.826Z,50.97
2023-05-08T22:17:02.433Z,51.27
2023-05-08T22:19:31.023Z,51.40
2023-05-08T22:21:58.625Z,50.73
2023-05-08T22:24:26.489Z,50.88
2023-05-08T22:26:54.262Z,51.40
2023-05-08T22:29:21.879Z,52.69
2023-05-08T22:31:49.763Z,52.15
2023-05-08T22:34:17.997Z,51.31
2023-05-08T22:36:45.706Z,51.50
2023-05-08T22:39:13.341Z,52.00
2023-05-08T22:41:40.982Z,51.16
2023-05-08T22:44:08.755Z,51.96
2023-05-08T22:46:37.096Z,52.31
2023-05-08T22:49:05.039Z,52.15
2023-05-08T22:51:33.146Z,52.10
2023-05-08T22:54:00.832Z,51.78
2023-05-08T22:56:28.610Z,51.12
2023-05-08T22:58:56.181Z,51.05
2023-05-08T23:01:23.773Z,50.84
2023-05-08T23:03:53.785Z,51.84
2023-05-08T23:06:21.451Z,51.43
2023-05-08T23:08:49.089Z,51.44
2023-05-08T23:11:16.663Z,51.62
2023-05-08T23:13:44.294Z,51.66
2023-05-08T23:16:11.954Z,52.40
2023-05-08T23:18:39.655Z,52.52
2023-05-08T23:21:08.456Z,52.17
2023-05-08T23:23:36.724Z,52.53
2023-05-08T23:26:05.230Z,53.15
2023-05-08T23:28:35.042Z,52.34
2023-05-08T23:31:03.587Z,52.40
2023-05-08T23:33:31.500Z,52.42
2023-05-08T23:35:59.261Z,53.09
2023-05-08T23:38:27.217Z,52.49
2023-05-08T23:40:54.828Z,52.65
2023-05-08T23:43:22.749Z,52.81
2023-05-08T23:45:50.600Z,52.47
2023-05-08T23:48:18.276Z,52.22
2023-05-08T23:50:46.571Z,52.62
2023-05-08T23:53:14.169Z,53.20
2023-05-08T23:55:42.042Z,52.74
2023-05-08T23:58:09.726Z,53.39
